Time;durP1;ratioP1;P1;durP2;ratioP2;P2;SDS_P1;SDS_P2;PMS_P1;PMS_P2;Temp;Humidity;BMP_temperature;BMP_pressure;BME280_temperature;BME280_humidity;BME280_pressure;Samples;Min_cycle;Max_cycle;Signal;HPM_P1;HPM_P2
2023/08/15 00:01:15;;;;;;;4.03;1.80;;;25.30;85.30;;;;;;5055249;28;20044;-86
2023/08/15 00:03:41;;;;;;;3.10;1.45;;;25.30;85.30;;;;;;5055704;28;20037;-86
2023/08/15 00:06:06;;;;;;;4.70;1.65;;;25.30;85.20;;;;;;5055325;28;20029;-87
2023/08/15 00:08:32;;;;;;;2.67;1.33;;;25.30;85.20;;;;;;5055350;28;20508;-87
2023/08/15 00:10:57;;;;;;;3.65;1.23;;;25.30;85.30;;;;;;5055381;28;20474;-86
2023/08/15 00:13:23;;;;;;;4.78;1.70;;;25.40;85.20;;;;;;5055354;28;20033;-86
2023/08/15 00:15:49;;;;;;;2.65;1.17;;;25.40;85.40;;;;;;5054683;28;20114;-86
2023/08/15 00:18:14;;;;;;;3.40;1.60;;;25.40;85.50;;;;;;5054645;28;20064;-86
2023/08/15 00:20:40;;;;;;;5.15;1.95;;;25.40;85.50;;;;;;5054590;28;20060;-85
2023/08/15 00:23:06;;;;;;;3.25;1.88;;;25.40;85.60;;;;;;5054870;28;20116;-86
2023/08/15 00:25:32;;;;;;;5.30;1.40;;;25.30;85.60;;;;;;5054599;28;20021;-86
2023/08/15 00:27:57;;;;;;;1.70;1.08;;;25.30;86.30;;;;;;5054700;28;20382;-86
2023/08/15 00:30:23;;;;;;;3.88;1.65;;;25.30;86.00;;;;;;5055053;28;20040;-86
2023/08/15 00:32:49;;;;;;;2.53;1.27;;;25.30;86.00;;;;;;5054745;28;20432;-85
2023/08/15 00:35:15;;;;;;;3.47;1.52;;;25.30;86.00;;;;;;5054294;28;20036;-86
2023/08/15 00:37:41;;;;;;;3.47;1.42;;;25.30;86.00;;;;;;5054604;28;20028;-85
2023/08/15 00:40:07;;;;;;;3.15;1.40;;;25.30;86.10;;;;;;5054194;28;20033;-86
2023/08/15 00:42:33;;;;;;;5.40;1.88;;;25.30;86.00;;;;;;5054523;28;20029;-86
2023/08/15 00:44:59;;;;;;;5.20;1.77;;;25.30;86.50;;;;;;5054483;28;20032;-86
2023/08/15 00:47:25;;;;;;;2.53;1.35;;;25.30;86.70;;;;;;5053161;28;20029;-87
2023/08/15 00:49:52;;;;;;;3.30;1.50;;;25.20;86.50;;;;;;5054862;28;20077;-86
2023/08/15 00:52:18;;;;;;;5.28;2.05;;;25.20;86.50;;;;;;5053654;28;20033;-87
2023/08/15 00:54:49;;;;;;;4.85;2.22;;;25.20;86.60;;;;;;5054264;28;20055;-87
2023/08/15 00:57:16;;;;;;;3.90;1.42;;;25.20;87.40;;;;;;5054235;28;20021;-87
2023/08/15 00:59:45;;;;;;;2.95;1.60;;;25.20;87.20;;;;;;5054033;28;20033;-86
2023/08/15 01:02:11;;;;;;;3.28;1.70;;;25.20;87.10;;;;;;5053406;28;20036;-87
2023/08/15 01:04:39;;;;;;;3.28;1.50;;;25.20;87.20;;;;;;5054135;28;20024;-86
2023/08/15 01:07:04;;;;;;;2.65;1.17;;;25.20;87.40;;;;;;5053080;28;20428;-87
2023/08/15 01:09:30;;;;;;;2.90;1.40;;;25.10;87.30;;;;;;5053227;28;20033;-87
2023/08/15 01:12:22;;;;;;;2.65;1.02;;;25.20;87.30;;;;;;5054027;28;20040;-86
2023/08/15 01:15:00;;;;;;;3.43;1.43;;;25.10;87.10;;;;;;5052373;28;20060;-86
2023/08/15 01:17:36;;;;;;;2.83;1.38;;;25.10;87.10;;;;;;5053683;28;20021;-87
2023/08/15 01:20:07;;;;;;;3.63;1.23;;;25.10;87.10;;;;;;5053474;28;20052;-87
2023/08/15 01:22:36;;;;;;;3.33;1.30;;;25.10;87.20;;;;;;5053958;28;20025;-87
2023/08/15 01:25:01;;;;;;;3.47;2.10;;;25.10;87.20;;;;;;5053875;28;20036;-87
2023/08/15 01:27:27;;;;;;;2.83;1.67;;;25.10;87.80;;;;;;5053488;28;20389;-85
2023/08/15 01:29:53;;;;;;;2.63;1.40;;;25.00;88.40;;;;;;5054032;28;20040;-87
2023/08/15 01:32:30;;;;;;;2.97;1.70;;;25.00;88.40;;;;;;5052766;28;20033;-87
2023/08/15 01:35:05;;;;;;;5.50;2.10;;;25.00;88.30;;;;;;5054090;28;20029;-87
2023/08/15 01:37:31;;;;;;;4.53;1.83;;;25.00;88.20;;;;;;5053721;28;20021;-87
2023/08/15 01:40:00;;;;;;;3.65;2.00;;;25.00;88.30;;;;;;5053292;28;20128;-80
2023/08/15 01:42:29;;;;;;;2.33;1.27;;;25.00;88.20;;;;;;5053824;28;20468;-80
2023/08/15 01:44:56;;;;;;;4.47;1.75;;;25.00;88.20;;;;;;5053548;28;20021;-80
2023/08/15 01:47:22;;;;;;;6.50;1.95;;;25.00;88.10;;;;;;5053544;28;20465;-81
2023/08/15 01:49:48;;;;;;;2.42;1.40;;;25.00;88.30;;;;;;5053168;28;20049;-81
2023/08/15 01:52:14;;;;;;;2.78;1.38;;;25.00;88.60;;;;;;5053742;28;20033;-80
2023/08/15 01:54:40;;;;;;;3.22;1.42;;;25.00;88.60;;;;;;5053348;28;20033;-81
2023/08/15 01:57:05;;;;;;;3.80;1.20;;;25.00;88.60;;;;;;5069119;28;20029;-81
2023/08/15 01:59:31;;;;;;;3.00;1.55;;;25.00;88.60;;;;;;5053508;28;20120;-80
2023/08/15 02:01:57;;;;;;;4.53;2.13;;;25.00;88.70;;;;;;5053716;28;20420;-79
2023/08/15 02:04:22;;;;;;;5.03;2.40;;;25.00;89.70;;;;;;5056662;28;20388;-79
2023/08/15 02:06:48;;;;;;;4.82;2.15;;;24.90;90.40;;;;;;5057931;28;20029;-79
2023/08/15 02:09:14;;;;;;;7.72;3.00;;;24.80;90.40;;;;;;5057598;28;20037;-80
2023/08/15 02:11:39;;;;;;;7.78;3.80;;;24.80;90.60;;;;;;5057292;28;20033;-80
2023/08/15 02:14:05;;;;;;;7.78;3.70;;;24.60;91.30;;;;;;5057797;28;20037;-80
2023/08/15 02:16:30;;;;;;;6.97;3.28;;;24.50;91.60;;;;;;5057225;28;20025;-80
2023/08/15 02:18:56;;;;;;;2.75;2.15;;;24.40;91.90;;;;;;5057133;28;20061;-80
2023/08/15 02:21:22;;;;;;;4.75;3.03;;;24.30;92.00;;;;;;5055902;28;20064;-80
2023/08/15 02:23:47;;;;;;;6.57;3.42;;;24.20;92.00;;;;;;5057328;28;20091;-80
2023/08/15 02:26:13;;;;;;;7.85;3.15;;;24.20;92.10;;;;;;5057083;28;20106;-80
2023/08/15 02:28:38;;;;;;;8.20;3.53;;;24.10;92.20;;;;;;5056928;28;20041;-80
2023/08/15 02:31:05;;;;;;;5.82;3.53;;;24.00;92.30;;;;;;5055674;28;20443;-80
2023/08/15 02:33:32;;;;;;;9.70;3.88;;;23.90;92.30;;;;;;5056636;28;20117;-80
2023/08/15 02:36:04;;;;;;;8.55;3.55;;;23.80;92.40;;;;;;5056386;28;20032;-80
2023/08/15 02:38:29;;;;;;;11.15;4.03;;;23.80;92.50;;;;;;5056419;28;20450;-80
2023/08/15 02:40:55;;;;;;;8.23;4.20;;;23.70;92.60;;;;;;5056953;28;20045;-80
2023/08/15 02:43:21;;;;;;;9.20;3.78;;;23.70;92.70;;;;;;5056365;28;20059;-80
2023/08/15 02:45:46;;;;;;;8.43;4.57;;;23.60;92.80;;;;;;5056912;28;20033;-80
2023/08/15 02:48:12;;;;;;;7.15;2.97;;;23.40;92.90;;;;;;5056708;28;20057;-80
2023/08/15 02:50:37;;;;;;;6.00;2.30;;;23.30;93.00;;;;;;5056596;28;20044;-80
2023/08/15 02:53:03;;;;;;;9.63;4.15;;;23.30;93.00;;;;;;5055012;28;20527;-80
2023/08/15 02:55:29;;;;;;;5.78;3.45;;;23.30;93.20;;;;;;5055378;28;20104;-80
2023/08/15 02:57:55;;;;;;;6.05;2.42;;;23.20;93.40;;;;;;5056417;28;20029;-80
2023/08/15 03:00:21;;;;;;;6.05;2.85;;;23.20;93.40;;;;;;5056258;28;20033;-80
2023/08/15 03:02:46;;;;;;;8.00;3.42;;;23.20;93.40;;;;;;5055614;28;20424;-80
2023/08/15 03:05:12;;;;;;;8.48;3.75;;;23.20;93.60;;;;;;5038513;28;20032;-80
2023/08/15 03:07:38;;;;;;;8.82;4.00;;;23.10;93.70;;;;;;5055145;28;20044;-80
2023/08/15 03:10:03;;;;;;;10.75;4.05;;;23.00;93.70;;;;;;5055023;28;20033;-80
2023/08/15 03:12:29;;;;;;;7.55;3.42;;;23.00;93.80;;;;;;5056407;28;20028;-79
2023/08/15 03:14:57;;;;;;;8.10;3.17;;;22.90;93.80;;;;;;5055411;28;20107;-80
2023/08/15 03:17:22;;;;;;;7.18;3.17;;;22.90;93.80;;;;;;5056157;28;20029;-79
2023/08/15 03:19:48;;;;;;;5.82;2.70;;;22.90;93.70;;;;;;5054539;28;20041;-80
2023/08/15 03:22:13;;;;;;;7.15;3.10;;;22.90;93.70;;;;;;5055974;28;20469;-79
2023/08/15 03:24:39;;;;;;;7.53;3.28;;;22.90;93.60;;;;;;5055983;28;20470;-80
2023/08/15 03:27:05;;;;;;;7.35;3.90;;;22.90;93.60;;;;;;5054763;28;20462;-79
2023/08/15 03:29:30;;;;;;;8.68;3.28;;;22.90;93.60;;;;;;5055561;28;20029;-79
2023/08/15 03:31:58;;;;;;;8.38;3.83;;;22.90;93.70;;;;;;5055869;28;20377;-79
2023/08/15 03:34:24;;;;;;;7.22;3.70;;;22.90;93.40;;;;;;5054451;28;20041;-79
2023/08/15 03:36:50;;;;;;;7.57;3.47;;;22.80;93.00;;;;;;5055441;28;20028;-79
2023/08/15 03:39:15;;;;;;;6.80;2.97;;;22.70;92.60;;;;;;5054937;28;20032;-79
2023/08/15 03:41:41;;;;;;;8.27;3.22;;;22.60;92.60;;;;;;5054883;28;20040;-78
2023/08/15 03:44:06;;;;;;;6.88;2.65;;;22.50;92.60;;;;;;5055873;28;20033;-78
2023/08/15 03:46:32;;;;;;;7.95;3.20;;;22.40;92.50;;;;;;5055308;28;20028;-78
2023/08/15 03:48:58;;;;;;;8.55;3.35;;;22.40;92.70;;;;;;5055472;28;20041;-79
2023/08/15 03:51:24;;;;;;;5.82;2.75;;;22.40;92.70;;;;;;5054186;28;20033;-79
2023/08/15 03:53:49;;;;;;;6.75;3.38;;;22.30;92.70;;;;;;5055656;28;20457;-79
2023/08/15 03:56:15;;;;;;;10.23;3.65;;;22.30;92.90;;;;;;5055048;28;20029;-80
2023/08/15 03:58:40;;;;;;;9.63;3.40;;;22.30;93.00;;;;;;5055259;28;20033;-79
2023/08/15 04:01:06;;;;;;;7.03;2.97;;;22.30;93.00;;;;;;5070633;28;20086;-79
2023/08/15 04:03:32;;;;;;;9.30;3.58;;;22.20;93.10;;;;;;5037438;28;20116;-80
2023/08/15 04:05:57;;;;;;;7.55;2.83;;;22.20;93.30;;;;;;5055197;28;20032;-80
2023/08/15 04:08:23;;;;;;;11.10;3.45;;;22.10;93.40;;;;;;5055173;28;20037;-79
2023/08/15 04:10:49;;;;;;;10.88;3.38;;;22.00;93.60;;;;;;5055398;28;20111;-79
2023/08/15 04:13:14;;;;;;;9.30;3.28;;;21.90;93.70;;;;;;5037669;28;20033;-80
2023/08/15 04:15:40;;;;;;;10.27;3.47;;;21.80;93.90;;;;;;5053806;28;20469;-80
2023/08/15 04:18:08;;;;;;;7.05;2.97;;;21.80;94.10;;;;;;5054993;28;20111;-80
2023/08/15 04:20:41;;;;;;;9.65;3.45;;;21.80;94.30;;;;;;5053296;28;20041;-81
2023/08/15 04:23:08;;;;;;;5.35;2.90;;;21.80;94.40;;;;;;5055417;28;20381;-80
2023/08/15 04:25:34;;;;;;;7.57;3.05;;;21.80;94.40;;;;;;5053432;28;20667;-81
2023/08/15 04:28:01;;;;;;;7.45;2.60;;;21.80;94.50;;;;;;5053650;28;20126;-80
2023/08/15 04:30:27;;;;;;;9.57;3.90;;;21.80;94.60;;;;;;5053427;28;20036;-80
2023/08/15 04:32:52;;;;;;;7.35;3.33;;;21.80;94.60;;;;;;5054659;28;20037;-81
2023/08/15 04:35:18;;;;;;;5.85;2.75;;;21.70;94.70;;;;;;5053741;28;20458;-81
2023/08/15 04:37:43;;;;;;;6.45;2.38;;;21.70;94.80;;;;;;5053358;28;20033;-81
2023/08/15 04:40:13;;;;;;;12.77;3.70;;;21.70;95.00;;;;;;5054568;28;20033;-80
2023/08/15 04:42:39;;;;;;;8.10;3.53;;;21.70;95.10;;;;;;5054248;28;20056;-81
2023/08/15 04:45:05;;;;;;;6.50;2.58;;;21.70;95.10;;;;;;5053174;28;20025;-80
2023/08/15 04:47:32;;;;;;;8.18;2.92;;;21.70;95.00;;;;;;5052805;28;20029;-80
2023/08/15 04:49:58;;;;;;;6.35;2.63;;;21.70;95.10;;;;;;5054207;28;20060;-80
2023/08/15 04:52:25;;;;;;;7.82;2.92;;;21.80;95.20;;;;;;5054610;28;20037;-80
2023/08/15 04:54:51;;;;;;;7.38;3.45;;;21.80;95.20;;;;;;5054300;28;20029;-81
2023/08/15 04:57:16;;;;;;;8.25;3.35;;;21.80;95.10;;;;;;5053991;28;20029;-80
2023/08/15 04:59:42;;;;;;;7.03;2.63;;;21.80;95.20;;;;;;5053962;28;20071;-80
2023/08/15 05:02:08;;;;;;;4.05;1.83;;;21.80;95.30;;;;;;5054239;28;20037;-81
2023/08/15 05:04:33;;;;;;;5.90;2.30;;;21.70;95.50;;;;;;5053322;28;20036;-80
2023/08/15 05:07:00;;;;;;;5.00;1.90;;;21.80;95.50;;;;;;5053275;28;20475;-80
2023/08/15 05:09:28;;;;;;;5.50;2.28;;;21.80;95.60;;;;;;5054062;28;20029;-80
2023/08/15 05:11:54;;;;;;;5.30;2.40;;;21.90;95.70;;;;;;5053744;28;20040;-80
2023/08/15 05:14:20;;;;;;;10.82;3.30;;;22.00;95.60;;;;;;5054445;28;20025;-80
2023/08/15 05:16:45;;;;;;;7.32;2.28;;;22.00;95.50;;;;;;5053043;28;20346;-80
2023/08/15 05:19:11;;;;;;;3.55;2.13;;;22.00;95.50;;;;;;5052680;28;20025;-80
2023/08/15 05:21:37;;;;;;;5.50;1.98;;;21.90;95.60;;;;;;5053964;28;20068;-81
2023/08/15 05:24:03;;;;;;;9.50;3.00;;;22.00;95.60;;;;;;5054113;28;20033;-81
2023/08/15 05:26:29;;;;;;;5.00;2.20;;;22.00;95.60;;;;;;5053956;28;20030;-80
2023/08/15 05:28:54;;;;;;;3.35;1.50;;;22.00;95.60;;;;;;5053014;28;20037;-80
2023/08/15 05:31:20;;;;;;;7.53;2.15;;;22.10;95.60;;;;;;5052419;28;20032;-80
2023/08/15 05:33:46;;;;;;;6.53;2.47;;;22.10;95.70;;;;;;5053524;28;20048;-80
2023/08/15 05:36:11;;;;;;;5.82;2.08;;;22.10;95.60;;;;;;5053918;28;20046;-81
2023/08/15 05:38:37;;;;;;;5.45;2.40;;;22.10;95.50;;;;;;5053754;28;20037;-80
2023/08/15 05:41:03;;;;;;;8.23;2.70;;;22.20;95.50;;;;;;5053346;28;20033;-80
2023/08/15 05:43:29;;;;;;;6.30;2.25;;;22.10;95.50;;;;;;5053504;28;20382;-80
2023/08/15 05:45:54;;;;;;;7.97;2.50;;;22.10;95.60;;;;;;5053618;28;20036;-80
2023/08/15 05:48:20;;;;;;;8.05;2.25;;;22.00;95.70;;;;;;5053361;28;20099;-80
2023/08/15 05:50:46;;;;;;;7.90;2.85;;;21.90;95.70;;;;;;5051948;28;20118;-80
2023/08/15 05:53:11;;;;;;;9.55;2.58;;;21.90;95.90;;;;;;5052596;28;20469;-80
2023/08/15 05:55:37;;;;;;;9.48;2.30;;;21.90;95.90;;;;;;5054219;28;20055;-80
2023/08/15 05:58:03;;;;;;;5.35;2.50;;;21.90;96.10;;;;;;5053639;28;20068;-79
2023/08/15 06:00:29;;;;;;;5.55;2.05;;;21.90;96.10;;;;;;5053260;28;20464;-80
2023/08/15 06:02:54;;;;;;;8.38;3.40;;;22.00;96.20;;;;;;5053264;28;20029;-80
2023/08/15 06:05:21;;;;;;;9.35;3.13;;;22.00;96.30;;;;;;5053453;28;20393;-80
2023/08/15 06:07:47;;;;;;;8.52;3.30;;;22.10;96.30;;;;;;5053933;28;20040;-80
2023/08/15 06:10:13;;;;;;;10.50;3.28;;;22.10;96.30;;;;;;5053287;28;20389;-80
2023/08/15 06:12:41;;;;;;;3.30;1.38;;;22.10;96.20;;;;;;5053378;28;20036;-79
2023/08/15 06:15:06;;;;;;;5.53;1.80;;;22.10;96.20;;;;;;5051778;28;20028;-81
2023/08/15 06:17:32;;;;;;;5.40;2.25;;;22.20;96.30;;;;;;5053017;28;20024;-81
2023/08/15 06:19:58;;;;;;;11.63;3.10;;;22.30;96.20;;;;;;5052499;28;20025;-81
2023/08/15 06:22:23;;;;;;;6.53;1.77;;;22.30;96.20;;;;;;5053175;28;20041;-80
2023/08/15 06:24:49;;;;;;;3.08;1.50;;;22.30;96.10;;;;;;5035226;28;20033;-80
2023/08/15 06:27:14;;;;;;;6.07;2.35;;;22.30;96.10;;;;;;5053639;28;20040;-81
2023/08/15 06:29:40;;;;;;;5.32;2.17;;;22.40;96.50;;;;;;5053686;28;20057;-80
2023/08/15 06:32:06;;;;;;;5.10;1.60;;;22.40;96.20;;;;;;5052628;28;20033;-81
2023/08/15 06:34:32;;;;;;;10.27;2.60;;;22.40;96.20;;;;;;5053116;28;20078;-81
2023/08/15 06:36:58;;;;;;;6.93;2.78;;;22.50;96.30;;;;;;5053248;28;20033;-81
2023/08/15 06:39:23;;;;;;;10.48;2.83;;;22.50;96.20;;;;;;5053156;28;20462;-82
2023/08/15 06:41:49;;;;;;;5.25;1.92;;;22.50;96.20;;;;;;5035668;28;20032;-80
2023/08/15 06:44:15;;;;;;;6.78;2.85;;;22.50;96.20;;;;;;5035516;28;20029;-79
2023/08/15 06:46:40;;;;;;;6.32;2.05;;;22.60;96.20;;;;;;5051760;28;20083;-81
2023/08/15 06:49:06;;;;;;;7.22;2.67;;;22.60;96.20;;;;;;5053716;28;20028;-81
2023/08/15 06:51:32;;;;;;;10.73;2.95;;;22.60;96.10;;;;;;5056794;28;20060;-82
2023/08/15 06:53:57;;;;;;;9.77;3.40;;;22.70;96.00;;;;;;5056202;28;20040;-82
2023/08/15 06:56:23;;;;;;;7.07;2.03;;;22.70;96.10;;;;;;5057396;28;20056;-82
2023/08/15 06:58:49;;;;;;;9.55;3.20;;;22.60;96.20;;;;;;5056484;28;20390;-82
2023/08/15 07:01:14;;;;;;;7.40;2.38;;;22.60;96.50;;;;;;5056629;28;20087;-82
2023/08/15 07:03:40;;;;;;;9.13;2.58;;;22.60;96.60;;;;;;5056681;28;20029;-82
2023/08/15 07:06:06;;;;;;;8.80;3.47;;;22.80;96.60;;;;;;5057671;28;20492;-82
2023/08/15 07:08:32;;;;;;;8.70;2.97;;;22.80;96.50;;;;;;5056702;28;20029;-82
2023/08/15 07:10:58;;;;;;;8.95;2.45;;;22.80;96.50;;;;;;5056191;28;20033;-81
2023/08/15 07:13:24;;;;;;;11.23;3.15;;;22.80;96.40;;;;;;5056582;28;20036;-82
2023/08/15 07:15:54;;;;;;;9.82;3.03;;;22.90;96.60;;;;;;5055036;28;20035;-81
2023/08/15 07:18:20;;;;;;;10.27;3.72;;;22.90;96.60;;;;;;5055113;28;20040;-81
2023/08/15 07:20:46;;;;;;;7.68;2.50;;;22.90;96.70;;;;;;5056177;28;20033;-82
2023/08/15 07:23:11;;;;;;;6.32;2.25;;;22.90;96.80;;;;;;5055045;28;20037;-82
2023/08/15 07:25:41;;;;;;;8.98;2.67;;;23.00;96.80;;;;;;5056007;28;20025;-82
2023/08/15 07:28:07;;;;;;;6.90;3.10;;;23.10;96.60;;;;;;5056229;28;20385;-83
2023/08/15 07:30:33;;;;;;;11.75;3.53;;;23.20;96.40;;;;;;5056050;28;20032;-82
2023/08/15 07:32:59;;;;;;;9.80;3.33;;;23.20;96.30;;;;;;5055394;28;20033;-82
2023/08/15 07:35:25;;;;;;;12.18;2.92;;;23.30;96.10;;;;;;5055779;28;20040;-83
2023/08/15 07:37:50;;;;;;;8.68;2.70;;;23.30;96.10;;;;;;5056126;28;20021;-82
2023/08/15 07:40:21;;;;;;;11.05;2.63;;;23.30;96.10;;;;;;5054815;28;20037;-83
2023/08/15 07:42:49;;;;;;;10.30;3.75;;;23.30;96.10;;;;;;5055803;28;20029;-83
2023/08/15 07:45:16;;;;;;;7.22;2.72;;;23.40;95.90;;;;;;5054676;28;20029;-83
2023/08/15 07:47:42;;;;;;;9.18;3.65;;;23.40;95.90;;;;;;5054658;28;20032;-82
2023/08/15 07:50:16;;;;;;;6.68;2.42;;;23.40;95.90;;;;;;5054795;28;20409;-80
2023/08/15 07:52:42;;;;;;;7.43;2.50;;;23.40;95.90;;;;;;5055814;28;20025;-82
2023/08/15 07:55:08;;;;;;;6.72;2.47;;;23.40;95.90;;;;;;5056250;28;20033;-82
2023/08/15 07:57:34;;;;;;;8.05;2.38;;;23.40;95.80;;;;;;5055621;28;20470;-83
2023/08/15 08:00:00;;;;;;;7.05;2.42;;;23.40;95.90;;;;;;5055391;28;20040;-82
2023/08/15 08:02:26;;;;;;;7.97;2.30;;;23.40;95.90;;;;;;5055365;28;20037;-82
2023/08/15 08:04:52;;;;;;;6.68;1.55;;;23.40;95.90;;;;;;5056216;28;20025;-82
2023/08/15 08:07:17;;;;;;;8.30;2.70;;;23.40;95.80;;;;;;5056159;28;20458;-83
2023/08/15 08:09:43;;;;;;;10.45;3.17;;;23.40;95.80;;;;;;5054574;28;20436;-82
2023/08/15 08:12:09;;;;;;;5.95;2.00;;;23.30;95.70;;;;;;5054609;28;20517;-83
2023/08/15 08:14:35;;;;;;;9.57;2.33;;;23.30;95.80;;;;;;5055387;28;20048;-83
2023/08/15 08:17:01;;;;;;;9.60;1.98;;;23.30;96.00;;;;;;5037351;28;20029;-82
2023/08/15 08:19:27;;;;;;;7.20;1.98;;;23.30;96.10;;;;;;5055725;28;20033;-83
2023/08/15 08:21:53;;;;;;;7.22;1.90;;;23.30;96.30;;;;;;5055135;28;20029;-82
2023/08/15 08:24:19;;;;;;;8.20;1.70;;;23.30;96.00;;;;;;5054773;28;20028;-83
2023/08/15 08:26:44;;;;;;;6.05;1.92;;;23.40;96.10;;;;;;5054962;28;20044;-82
2023/08/15 08:29:11;;;;;;;11.15;2.22;;;23.60;95.80;;;;;;5053925;28;20422;-83
2023/08/15 08:31:39;;;;;;;8.75;1.50;;;23.70;95.60;;;;;;5070585;28;20028;-82
2023/08/15 08:34:13;;;;;;;10.20;2.30;;;23.80;95.40;;;;;;5055193;28;20029;-83
2023/08/15 08:36:42;;;;;;;8.13;2.03;;;23.80;95.20;;;;;;5053856;28;20120;-83
2023/08/15 08:39:08;;;;;;;12.75;2.50;;;23.80;95.00;;;;;;5053994;28;20469;-83
2023/08/15 08:41:38;;;;;;;8.88;2.60;;;23.80;95.30;;;;;;5037453;28;20591;-83
2023/08/15 08:44:04;;;;;;;10.30;2.17;;;23.80;95.00;;;;;;5054915;28;20477;-82
2023/08/15 08:46:30;;;;;;;8.10;1.80;;;23.80;94.90;;;;;;5055048;28;20028;-83
2023/08/15 08:49:00;;;;;;;7.30;2.03;;;23.70;95.00;;;;;;5055222;28;20033;-82
2023/08/15 08:51:27;;;;;;;7.88;2.13;;;23.70;95.10;;;;;;5055388;28;20057;-83
2023/08/15 08:53:53;;;;;;;9.82;2.30;;;23.70;95.30;;;;;;5053874;28;20068;-83
2023/08/15 08:56:21;;;;;;;10.95;2.70;;;23.70;95.20;;;;;;5054383;28;20079;-83
2023/08/15 08:58:51;;;;;;;7.03;2.20;;;23.70;95.10;;;;;;5054473;28;20052;-83
2023/08/15 09:01:18;;;;;;;9.45;2.28;;;23.70;95.20;;;;;;5053683;28;20374;-81
2023/08/15 09:03:43;;;;;;;7.97;2.25;;;23.70;95.20;;;;;;5054525;28;20041;-83
2023/08/15 09:06:10;;;;;;;9.35;1.88;;;23.70;95.40;;;;;;5070111;28;20434;-83
2023/08/15 09:08:36;;;;;;;6.95;1.77;;;23.60;95.40;;;;;;5054264;28;20032;-83
2023/08/15 09:11:01;;;;;;;9.45;2.00;;;23.50;95.50;;;;;;5055098;28;20098;-83
2023/08/15 09:13:27;;;;;;;7.97;1.98;;;23.50;95.60;;;;;;5053040;28;20032;-82
2023/08/15 09:15:58;;;;;;;9.85;2.00;;;23.40;95.60;;;;;;5053100;28;20504;-83
2023/08/15 09:18:26;;;;;;;7.50;1.67;;;23.50;95.30;;;;;;5054642;28;20033;-82
2023/08/15 09:20:52;;;;;;;6.22;1.67;;;23.60;95.20;;;;;;5054266;28;20029;-83
2023/08/15 09:23:18;;;;;;;5.30;1.63;;;23.70;95.20;;;;;;5054273;28;20035;-82
2023/08/15 09:25:44;;;;;;;8.35;1.63;;;23.90;94.80;;;;;;5054138;28;20061;-83
2023/08/15 09:28:09;;;;;;;9.05;2.45;;;24.10;94.80;;;;;;5054222;28;20059;-83
2023/08/15 09:30:36;;;;;;;8.15;2.05;;;24.20;94.60;;;;;;5052845;28;20029;-83
2023/08/15 09:33:03;;;;;;;6.60;1.38;;;24.30;94.40;;;;;;5052987;28;20044;-82
2023/08/15 09:35:30;;;;;;;7.13;1.70;;;24.40;94.30;;;;;;5054035;28;20032;-82
2023/08/15 09:37:56;;;;;;;8.35;2.10;;;24.40;94.00;;;;;;5054161;28;20028;-83
2023/08/15 09:40:24;;;;;;;12.40;2.83;;;24.40;94.10;;;;;;5053463;28;20041;-82
2023/08/15 09:42:51;;;;;;;9.90;2.05;;;24.40;93.80;;;;;;5052557;28;20043;-83
2023/08/15 09:45:17;;;;;;;7.00;2.20;;;24.40;93.70;;;;;;5054099;28;20500;-83
2023/08/15 09:47:44;;;;;;;10.55;2.58;;;24.40;93.60;;;;;;5053869;28;20033;-83
2023/08/15 09:50:11;;;;;;;10.68;2.70;;;24.40;93.80;;;;;;5054018;28;20068;-84
2023/08/15 09:52:44;;;;;;;11.43;2.33;;;24.30;93.80;;;;;;5053866;28;20033;-83
2023/08/15 09:55:11;;;;;;;9.18;2.80;;;24.20;94.00;;;;;;5053842;28;20052;-83
2023/08/15 09:57:38;;;;;;;6.85;1.60;;;24.00;94.10;;;;;;5053988;28;20021;-82
2023/08/15 10:00:08;;;;;;;7.25;1.73;;;24.10;94.40;;;;;;5053683;28;20041;-83
2023/08/15 10:02:42;;;;;;;8.00;2.08;;;24.10;94.40;;;;;;5053439;28;20041;-83
2023/08/15 10:05:11;;;;;;;7.18;2.25;;;24.10;94.60;;;;;;5052781;28;20033;-83
2023/08/15 10:07:37;;;;;;;7.45;2.28;;;24.00;94.30;;;;;;5053886;28;20036;-83
2023/08/15 10:10:05;;;;;;;7.43;2.03;;;24.10;94.40;;;;;;5053893;28;20066;-83
2023/08/15 10:12:33;;;;;;;8.00;2.53;;;24.10;94.40;;;;;;5053053;28;20041;-83
2023/08/15 10:14:59;;;;;;;7.03;2.05;;;24.20;94.40;;;;;;5054003;28;20029;-83
2023/08/15 10:17:27;;;;;;;5.80;1.90;;;24.20;94.40;;;;;;5053586;28;20035;-83
2023/08/15 10:20:05;;;;;;;8.25;2.13;;;24.20;94.30;;;;;;5052046;28;20043;-83
2023/08/15 10:22:34;;;;;;;7.28;2.50;;;24.20;94.50;;;;;;5054120;28;20033;-83
2023/08/15 10:25:20;;;;;;;8.93;2.80;;;24.20;94.50;;;;;;5054696;28;20033;-82
2023/08/15 10:27:51;;;;;;;6.93;2.10;;;24.20;94.40;;;;;;5057669;28;20021;-83
2023/08/15 10:30:35;;;;;;;8.63;2.35;;;24.20;94.40;;;;;;5057294;28;20067;-83
2023/08/15 10:33:13;;;;;;;9.35;2.50;;;24.20;94.30;;;;;;5057519;28;20476;-83
2023/08/15 10:35:51;;;;;;;6.90;2.28;;;24.20;94.30;;;;;;5056483;28;20025;-82
2023/08/15 10:38:30;;;;;;;7.47;2.25;;;24.30;94.30;;;;;;5056471;28;20052;-82
2023/08/15 10:41:17;;;;;;;8.07;2.80;;;24.30;94.40;;;;;;5057147;28;20029;-83
2023/08/15 10:43:55;;;;;;;14.73;2.80;;;24.40;94.50;;;;;;5057520;28;20108;-83
2023/08/15 10:46:26;;;;;;;7.63;2.15;;;24.50;94.60;;;;;;5056969;28;20029;-83
2023/08/15 10:49:11;;;;;;;7.88;2.05;;;24.60;94.50;;;;;;5057045;28;20421;-83
2023/08/15 10:51:41;;;;;;;8.43;2.35;;;24.80;94.10;;;;;;5056213;28;20064;-83
2023/08/15 10:54:09;;;;;;;8.00;2.40;;;25.00;93.90;;;;;;5057524;28;20108;-84
2023/08/15 10:56:37;;;;;;;8.15;2.28;;;25.10;93.10;;;;;;5057758;28;20128;-83
2023/08/15 10:59:09;;;;;;;7.47;2.50;;;25.10;92.30;;;;;;5057113;28;20432;-83
2023/08/15 11:01:39;;;;;;;7.25;1.75;;;25.20;92.50;;;;;;5057275;28;20319;-83
2023/08/15 11:04:09;;;;;;;6.45;1.75;;;25.20;92.30;;;;;;5056101;28;20073;-83
2023/08/15 11:06:42;;;;;;;12.13;1.98;;;25.40;92.10;;;;;;5058324;28;20036;-84
2023/08/15 11:09:10;;;;;;;6.35;2.15;;;25.40;91.70;;;;;;5057550;28;20029;-82
2023/08/15 11:11:36;;;;;;;9.52;2.13;;;25.30;91.20;;;;;;5060292;28;20029;-83
2023/08/15 11:14:02;;;;;;;5.72;1.48;;;25.30;91.40;;;;;;5060357;28;20470;-84
2023/08/15 11:16:27;;;;;;;6.18;1.45;;;25.50;91.80;;;;;;5057255;28;20021;-83
2023/08/15 11:18:57;;;;;;;5.63;1.70;;;25.60;91.80;;;;;;5055923;28;20108;-84
2023/08/15 11:21:28;;;;;;;5.97;1.55;;;25.70;91.50;;;;;;5056382;28;20028;-83
2023/08/15 11:23:57;;;;;;;5.35;1.65;;;25.70;91.20;;;;;;5056727;28;20029;-83
2023/08/15 11:26:23;;;;;;;7.38;2.42;;;25.60;90.90;;;;;;5056288;28;20025;-83
2023/08/15 11:28:49;;;;;;;4.97;1.65;;;25.50;90.80;;;;;;5056278;28;20083;-83
2023/08/15 11:31:16;;;;;;;5.78;1.45;;;25.40;91.00;;;;;;5055218;28;20044;-84
2023/08/15 11:33:42;;;;;;;8.45;2.75;;;25.40;91.50;;;;;;5038249;28;20123;-82
2023/08/15 11:36:10;;;;;;;6.28;1.85;;;25.30;91.30;;;;;;5055840;28;20033;-83
2023/08/15 11:38:36;;;;;;;6.03;2.05;;;25.20;91.30;;;;;;5057413;28;20042;-82
2023/08/15 11:41:03;;;;;;;7.35;2.45;;;25.30;91.60;;;;;;5068135;28;20037;-82
2023/08/15 11:43:29;;;;;;;9.45;2.38;;;25.30;91.40;;;;;;5069178;28;20033;-81
2023/08/15 11:45:55;;;;;;;6.82;2.10;;;25.30;91.20;;;;;;5064163;28;20120;-82
2023/08/15 11:48:21;;;;;;;7.80;2.67;;;25.40;91.30;;;;;;5062776;28;20040;-81
2023/08/15 11:50:47;;;;;;;8.48;2.75;;;25.40;90.90;;;;;;5068969;28;20092;-82
2023/08/15 11:53:17;;;;;;;11.27;2.40;;;25.40;90.90;;;;;;5067095;28;20033;-83
2023/08/15 11:55:44;;;;;;;8.75;3.00;;;25.20;91.10;;;;;;5062642;28;20056;-81
2023/08/15 11:58:42;;;;;;;8.18;2.28;;;25.10;91.40;;;;;;5064643;28;20453;-79
2023/08/15 12:01:11;;;;;;;6.57;2.50;;;25.10;91.70;;;;;;5054817;28;20056;-82
2023/08/15 12:03:37;;;;;;;6.97;2.63;;;25.10;91.80;;;;;;5065495;28;20036;-82
2023/08/15 12:06:10;;;;;;;8.35;2.30;;;25.20;91.80;;;;;;5065739;28;20047;-82
2023/08/15 12:08:38;;;;;;;7.70;2.30;;;25.40;91.90;;;;;;5062878;28;20029;-82
2023/08/15 12:11:07;;;;;;;9.52;2.50;;;25.50;91.80;;;;;;5063832;28;20033;-82
2023/08/15 12:13:35;;;;;;;8.63;2.17;;;25.60;91.70;;;;;;5067184;28;20028;-82
2023/08/15 12:16:02;;;;;;;4.43;2.10;;;25.80;91.60;;;;;;5065256;28;20029;-82
2023/08/15 12:18:29;;;;;;;10.25;3.20;;;26.00;91.50;;;;;;5068556;28;20033;-82
2023/08/15 12:20:55;;;;;;;9.80;2.95;;;26.20;90.70;;;;;;5067984;28;20029;-83
2023/08/15 12:23:21;;;;;;;8.55;2.50;;;26.30;90.30;;;;;;5067901;28;20100;-82
2023/08/15 12:25:46;;;;;;;11.10;2.90;;;26.40;90.20;;;;;;5068899;28;20025;-82
2023/08/15 12:28:12;;;;;;;9.55;2.60;;;26.20;89.80;;;;;;5067493;28;20033;-82
2023/08/15 12:30:38;;;;;;;7.40;2.33;;;26.10;90.00;;;;;;5064993;28;20029;-82
2023/08/15 12:33:05;;;;;;;7.47;2.03;;;26.20;90.40;;;;;;5067344;28;20032;-81
2023/08/15 12:35:32;;;;;;;9.73;2.33;;;26.20;90.10;;;;;;5068763;28;20026;-82
2023/08/15 12:37:58;;;;;;;9.07;2.42;;;26.20;89.80;;;;;;5070532;28;20402;-82
2023/08/15 12:40:25;;;;;;;6.97;2.00;;;26.10;89.70;;;;;;5051994;28;20576;-83
2023/08/15 12:42:52;;;;;;;8.88;2.90;;;26.30;89.90;;;;;;5065223;28;20098;-82
2023/08/15 12:45:18;;;;;;;8.40;2.63;;;26.30;88.70;;;;;;5067527;28;20413;-81